Woodbury, TN (37190)

3:37 PM CST on February 28, 2015 (GMT -0600)
Cannon County High School - W4WBY | Change Station
CLOSE
Current Station
Personal Weather Station
Location: Woodbury, TN
Elevation: 722 ft
Nearby Weather Stations

Elev 722 ft 35.82 °N, 86.06 °W | Updated 12 minutes ago

Clear
Clear
52.8 °F
Feels Like 52.8 °F
N
3.0
Wind Variable Wind from SSE
Gusts 6.0 mph

Today
High -- | Low -- °F
--% Chance of Precip.
Yesterday
High -- | Low -- °F
Precip. -- in
6:15 AM 5:38 PM
Waxing Gibbous, 80% visible
Pressure 30.51 in
Visibility 10.0 miles
Clouds Clear
Dew Point 32 °F
Humidity 46%
Rainfall 0.00 in
Snow Depth Not available.
UV 3 out of 12
Pollen 3.60 out of 12
Air Quality Not available.
Flu Activity Not available.
METAR KMQY 282056Z VRB03KT 10SM CLR 09/M04 A3047 RMK AO2 56033 T00941038 SLP331

More Conditions Fewer Conditions

Pressure 30.51 in
Visibility 10.0 miles
Clouds Clear
Dew Point 32 °F
Humidity 46%
Rainfall 0.00 in
Snow Depth Not available.
UV 3 out of 12
Pollen 3.60 out of 12
Air Quality Not available.
Flu Activity Not available.
METAR KMQY 282056Z VRB03KT 10SM CLR 09/M04 A3047 RMK AO2 56033 T00941038 SLP331

More Conditions Fewer Conditions

10-Day Weather Forecast

Almanac

Astronomy

Feb. 28, 2015 Rise Set
Actual Time
Civil Twilight
Nautical Twilight
Astronomical Twilight
Moon
Length of Visible Light
Length of Day
Tomorrow will be .
, % of the Moon is Illuminated

Today's Extremes

State Highs State Lows

Community

WunderPhotos

Upload Photos

1,801,158 photos uploaded!

WunderBlogs® & News

Nearby

Air Quality

  Air Quality AQ Index Pollutant
Not available.

Snow Depth

Station Depth Elevation

Earthquake Activity

City Distance Mag. Time & Date
Minimum magnitude displayed is 2.5.

Coastal Water Temperatures

Place Temperature

Nearby Weather Stations